createdAt,value
2017-01-25T00:00:27.073Z,839.08
2017-01-25T00:00:57.096Z,839.1
2017-01-25T00:01:27.123Z,839.08
2017-01-25T00:01:57.155Z,839.09
2017-01-25T00:02:27.181Z,839.09
2017-01-25T00:02:57.210Z,839.03
2017-01-25T00:03:27.235Z,839.04
2017-01-25T00:03:57.262Z,839
2017-01-25T00:04:27.291Z,838.94
2017-01-25T00:04:57.315Z,838.95
2017-01-25T00:05:27.342Z,838.93
2017-01-25T00:05:57.371Z,838.98
2017-01-25T00:06:27.400Z,838.98
2017-01-25T00:06:57.425Z,838.97
2017-01-25T00:07:27.451Z,838.99
2017-01-25T00:07:57.479Z,838.97
2017-01-25T00:08:27.507Z,838.97
2017-01-25T00:08:57.534Z,839.02
2017-01-25T00:09:27.912Z,839.01
2017-01-25T00:09:57.588Z,839.03
2017-01-25T00:10:27.616Z,839.02
2017-01-25T00:10:57.644Z,839.03
2017-01-25T00:11:27.671Z,839.07
2017-01-25T00:11:57.696Z,839.07
2017-01-25T00:12:27.725Z,839.05
2017-01-25T00:12:57.754Z,838.96
2017-01-25T00:13:27.781Z,838.98
2017-01-25T00:13:57.807Z,839.03
2017-01-25T00:14:27.832Z,838.98
2017-01-25T00:14:57.863Z,838.96
2017-01-25T00:15:27.888Z,839
2017-01-25T00:15:57.921Z,839.01
2017-01-25T00:16:27.946Z,839.05
2017-01-25T00:16:57.971Z,839.12
2017-01-25T00:17:27.996Z,839.16
2017-01-25T00:17:58.026Z,839.2
2017-01-25T00:18:28.055Z,839.21
2017-01-25T00:18:58.078Z,839.24
2017-01-25T00:19:28.107Z,839.29
2017-01-25T00:19:58.136Z,839.36
2017-01-25T00:20:28.160Z,839.39
2017-01-25T00:20:58.207Z,839.42
2017-01-25T00:21:28.216Z,839.43
2017-01-25T00:21:58.240Z,839.42
2017-01-25T00:22:28.268Z,839.46
2017-01-25T00:22:58.296Z,839.47
2017-01-25T00:23:28.322Z,839.51
2017-01-25T00:23:58.352Z,839.54
2017-01-25T00:24:28.381Z,839.57
2017-01-25T00:24:58.403Z,839.56
2017-01-25T00:25:28.430Z,839.6
2017-01-25T00:25:58.460Z,839.65
2017-01-25T00:26:28.487Z,839.66
2017-01-25T00:26:58.517Z,839.63
2017-01-25T00:27:28.539Z,839.74
2017-01-25T00:27:58.569Z,839.72
2017-01-25T00:28:28.597Z,839.79
2017-01-25T00:28:58.622Z,839.83
2017-01-25T00:29:28.651Z,839.81
2017-01-25T00:29:58.676Z,839.81
2017-01-25T00:30:28.707Z,839.82
2017-01-25T00:30:58.730Z,839.89
2017-01-25T00:31:28.757Z,839.94
2017-01-25T00:31:58.786Z,839.97
2017-01-25T00:32:28.816Z,840.01
2017-01-25T00:32:58.843Z,840.04
2017-01-25T00:33:28.869Z,840.03
2017-01-25T00:33:58.896Z,840.06
2017-01-25T00:34:28.923Z,840.12
2017-01-25T00:34:59.251Z,840.13
2017-01-25T00:35:28.979Z,840.19
2017-01-25T00:35:59.007Z,840.2
2017-01-25T00:36:29.032Z,840.18
2017-01-25T00:36:59.061Z,840.2
2017-01-25T00:37:29.088Z,840.2
2017-01-25T00:37:59.112Z,840.22
2017-01-25T00:38:29.142Z,840.22
2017-01-25T00:38:59.176Z,840.28
2017-01-25T00:39:29.196Z,840.28
2017-01-25T00:39:59.220Z,840.34
2017-01-25T00:40:29.252Z,840.33
2017-01-25T00:40:59.277Z,840.41
2017-01-25T00:41:29.304Z,840.49
2017-01-25T00:41:59.332Z,840.52
2017-01-25T00:42:29.359Z,840.57
2017-01-25T00:42:59.385Z,840.59
2017-01-25T00:43:29.417Z,840.65
2017-01-25T00:43:59.445Z,840.65
2017-01-25T00:44:29.470Z,840.7
2017-01-25T00:44:59.496Z,840.71
2017-01-25T00:45:29.526Z,840.72
2017-01-25T00:45:59.551Z,840.76
2017-01-25T00:46:29.576Z,840.76
2017-01-25T00:46:59.607Z,840.76
2017-01-25T00:47:29.636Z,840.75
2017-01-25T00:47:59.660Z,840.78
2017-01-25T00:48:29.686Z,840.78
2017-01-25T00:48:59.715Z,840.81
2017-01-25T00:49:29.746Z,840.79
2017-01-25T00:49:59.770Z,840.82
2017-01-25T00:50:29.796Z,840.83
2017-01-25T00:50:59.824Z,840.86
2017-01-25T00:51:29.850Z,840.88
2017-01-25T00:51:59.878Z,840.91
2017-01-25T00:52:29.907Z,840.88
2017-01-25T00:52:59.934Z,840.88
2017-01-25T00:53:29.966Z,840.81
2017-01-25T00:53:59.989Z,840.82
2017-01-25T00:54:30.015Z,840.83
2017-01-25T00:55:00.043Z,840.86
2017-01-25T00:55:30.371Z,840.76
2017-01-25T00:56:00.098Z,840.73
2017-01-25T00:56:30.124Z,840.71
2017-01-25T00:57:00.154Z,840.65
2017-01-25T00:57:30.181Z,840.62
2017-01-25T00:58:00.209Z,840.57
2017-01-25T00:58:30.245Z,840.58
2017-01-25T00:59:00.266Z,840.57
2017-01-25T00:59:30.290Z,840.54
2017-01-25T01:00:00.320Z,840.58
2017-01-25T01:00:30.348Z,840.56
2017-01-25T01:01:00.376Z,840.62
2017-01-25T01:01:30.397Z,840.61
2017-01-25T01:02:00.428Z,840.66
2017-01-25T01:02:30.455Z,840.62
2017-01-25T01:03:00.481Z,840.63
2017-01-25T01:03:30.511Z,840.62
2017-01-25T01:04:00.538Z,840.58
2017-01-25T01:04:30.565Z,840.64
2017-01-25T01:05:00.591Z,840.73
2017-01-25T01:05:30.617Z,840.74
2017-01-25T01:06:00.672Z,840.72
2017-01-25T01:06:30.675Z,840.78
2017-01-25T01:07:00.700Z,840.77
2017-01-25T01:07:30.731Z,840.72
2017-01-25T01:08:00.755Z,840.65
2017-01-25T01:08:30.786Z,840.61
2017-01-25T01:09:00.808Z,840.6
2017-01-25T01:09:30.838Z,840.55
2017-01-25T01:10:00.866Z,840.55
2017-01-25T01:10:30.889Z,840.45
2017-01-25T01:11:00.918Z,840.36
2017-01-25T01:11:30.946Z,840.31
2017-01-25T01:12:00.974Z,840.27
2017-01-25T01:12:31.001Z,840.2
2017-01-25T01:13:01.029Z,840.16
2017-01-25T01:13:31.056Z,840.12
2017-01-25T01:14:01.083Z,840.16
2017-01-25T01:14:31.109Z,840.19
2017-01-25T01:15:01.139Z,840.17
2017-01-25T01:15:31.194Z,840.17
2017-01-25T01:16:01.846Z,840.16
2017-01-25T01:16:31.217Z,840.13
2017-01-25T01:17:01.249Z,840.17
2017-01-25T01:17:31.277Z,840.18
2017-01-25T01:18:01.298Z,840.18
2017-01-25T01:18:31.326Z,840.2
2017-01-25T01:19:01.355Z,840.26
2017-01-25T01:19:31.384Z,840.28
2017-01-25T01:20:01.411Z,840.35
2017-01-25T01:20:31.438Z,840.38
2017-01-25T01:21:01.466Z,840.44
2017-01-25T01:21:31.492Z,840.46
2017-01-25T01:22:01.871Z,840.49
2017-01-25T01:22:31.550Z,840.51
2017-01-25T01:23:01.876Z,840.5
2017-01-25T01:23:31.606Z,840.59
2017-01-25T01:24:01.632Z,840.49
2017-01-25T01:24:31.656Z,840.55
2017-01-25T01:25:01.683Z,840.64
2017-01-25T01:25:31.713Z,840.67
2017-01-25T01:26:01.989Z,840.74
2017-01-25T01:26:31.767Z,840.72
2017-01-25T01:27:01.897Z,840.72
2017-01-25T01:27:31.821Z,840.79
2017-01-25T01:28:01.849Z,840.77
2017-01-25T01:28:31.876Z,840.8
2017-01-25T01:29:01.905Z,840.79
2017-01-25T01:29:31.930Z,840.82
2017-01-25T01:30:01.958Z,840.8
2017-01-25T01:30:31.986Z,840.8
2017-01-25T01:31:02.263Z,840.76
2017-01-25T01:31:32.041Z,840.73
2017-01-25T01:32:02.069Z,840.76
2017-01-25T01:32:32.096Z,840.8
2017-01-25T01:33:02.124Z,840.78
2017-01-25T01:33:32.150Z,840.72
2017-01-25T01:34:02.226Z,840.72
2017-01-25T01:34:32.204Z,840.67
2017-01-25T01:35:02.236Z,840.66
2017-01-25T01:35:32.263Z,840.67
2017-01-25T01:36:02.438Z,840.65
2017-01-25T01:36:32.615Z,840.68
2017-01-25T01:37:02.342Z,840.66
2017-01-25T01:37:32.368Z,840.69
2017-01-25T01:38:02.397Z,840.68
2017-01-25T01:38:32.424Z,840.71
2017-01-25T01:39:02.451Z,840.73
2017-01-25T01:39:32.477Z,840.7
2017-01-25T01:40:02.506Z,840.63
2017-01-25T01:40:32.533Z,840.69
2017-01-25T01:41:02.570Z,840.69
2017-01-25T01:41:32.589Z,840.67
2017-01-25T01:42:02.716Z,840.67
2017-01-25T01:42:32.645Z,840.72
2017-01-25T01:43:02.670Z,840.77
2017-01-25T01:43:32.700Z,840.77
2017-01-25T01:44:02.729Z,840.72
2017-01-25T01:44:32.753Z,840.71
2017-01-25T01:45:02.783Z,840.7
2017-01-25T01:45:32.807Z,840.69
2017-01-25T01:46:02.837Z,840.75
2017-01-25T01:46:32.862Z,840.74
2017-01-25T01:47:02.894Z,840.75
2017-01-25T01:47:32.926Z,840.75
2017-01-25T01:48:02.946Z,840.76
2017-01-25T01:48:32.974Z,840.74
2017-01-25T01:49:03.033Z,840.69
2017-01-25T01:49:33.025Z,840.64
2017-01-25T01:50:03.057Z,840.65
2017-01-25T01:50:33.082Z,840.62
2017-01-25T01:51:03.108Z,840.58
2017-01-25T01:51:33.136Z,840.59
2017-01-25T01:52:03.164Z,840.58
2017-01-25T01:52:33.191Z,840.6
2017-01-25T01:53:03.219Z,840.6
2017-01-25T01:53:33.247Z,840.65
2017-01-25T01:54:03.274Z,840.65
2017-01-25T01:54:33.331Z,840.65
2017-01-25T01:55:03.327Z,840.65
2017-01-25T01:55:33.357Z,840.67
2017-01-25T01:56:03.384Z,840.64
2017-01-25T01:56:33.411Z,840.66
2017-01-25T01:57:03.741Z,840.65
2017-01-25T01:57:33.467Z,840.62
2017-01-25T01:58:03.492Z,840.63
2017-01-25T01:58:33.520Z,840.61
2017-01-25T01:59:03.550Z,840.64
2017-01-25T01:59:33.577Z,840.62
2017-01-25T02:00:03.603Z,840.65
2017-01-25T02:00:33.628Z,840.62
2017-01-25T02:01:03.656Z,840.68
2017-01-25T02:01:33.683Z,840.68
2017-01-25T02:02:03.720Z,840.6
2017-01-25T02:02:33.737Z,840.63
2017-01-25T02:03:03.765Z,840.61
2017-01-25T02:03:33.795Z,840.65
2017-01-25T02:04:03.823Z,840.67
2017-01-25T02:04:33.847Z,840.66
2017-01-25T02:05:03.874Z,840.73
2017-01-25T02:05:33.903Z,840.75
2017-01-25T02:06:03.931Z,840.84
2017-01-25T02:06:33.957Z,840.85
2017-01-25T02:07:03.985Z,840.92
2017-01-25T02:07:34.010Z,840.9
2017-01-25T02:08:04.043Z,841
2017-01-25T02:08:34.070Z,841.06
2017-01-25T02:09:04.095Z,841.07
2017-01-25T02:09:34.125Z,841.12
2017-01-25T02:10:04.152Z,841.16
2017-01-25T02:10:34.177Z,841.16
2017-01-25T02:11:04.202Z,841.2
2017-01-25T02:11:34.227Z,841.18
2017-01-25T02:12:04.258Z,841.21
2017-01-25T02:12:34.287Z,841.21
2017-01-25T02:13:04.324Z,841.25
2017-01-25T02:13:34.342Z,841.31
2017-01-25T02:14:04.369Z,841.33
2017-01-25T02:14:34.397Z,841.34
2017-01-25T02:15:04.421Z,841.42
2017-01-25T02:15:34.452Z,841.38
2017-01-25T02:16:04.476Z,841.39
2017-01-25T02:16:34.506Z,841.35
2017-01-25T02:17:04.533Z,841.38
2017-01-25T02:17:34.860Z,841.39
2017-01-25T02:18:04.588Z,841.37
2017-01-25T02:18:34.615Z,841.38
2017-01-25T02:19:04.642Z,841.43
2017-01-25T02:19:34.670Z,841.41
2017-01-25T02:20:04.705Z,841.39
2017-01-25T02:20:34.728Z,841.39
2017-01-25T02:21:04.755Z,841.38
2017-01-25T02:21:34.787Z,841.37
2017-01-25T02:22:04.812Z,841.4
2017-01-25T02:22:34.834Z,841.43
2017-01-25T02:23:04.894Z,841.46
2017-01-25T02:23:34.889Z,841.41
2017-01-25T02:24:04.919Z,841.42
2017-01-25T02:24:34.944Z,841.37
2017-01-25T02:25:04.972Z,841.34
2017-01-25T02:25:34.998Z,841.3
2017-01-25T02:26:05.026Z,841.3
2017-01-25T02:26:35.052Z,841.25
2017-01-25T02:27:05.081Z,841.17
2017-01-25T02:27:35.114Z,841.16
2017-01-25T02:28:05.133Z,841.16
2017-01-25T02:28:35.164Z,841.13
2017-01-25T02:29:05.191Z,841.12
2017-01-25T02:29:35.218Z,841.12
2017-01-25T02:30:05.247Z,841.08
2017-01-25T02:30:35.272Z,841.06
2017-01-25T02:31:05.302Z,841.11
2017-01-25T02:31:35.327Z,841.11
2017-01-25T02:32:05.353Z,841.09
2017-01-25T02:32:35.382Z,841.11
2017-01-25T02:33:05.412Z,841.1
2017-01-25T02:33:35.437Z,841.11
2017-01-25T02:34:05.466Z,841.17
2017-01-25T02:34:35.496Z,841.16
2017-01-25T02:35:05.517Z,841.17
2017-01-25T02:35:35.544Z,841.17
2017-01-25T02:36:05.575Z,841.21
2017-01-25T02:36:35.603Z,841.23
2017-01-25T02:37:05.630Z,841.23
2017-01-25T02:37:35.656Z,841.25
2017-01-25T02:38:05.686Z,841.19
2017-01-25T02:38:35.741Z,841.21
2017-01-25T02:39:05.739Z,841.16
2017-01-25T02:39:35.763Z,841.16
2017-01-25T02:40:05.792Z,841.18
2017-01-25T02:40:35.820Z,841.19
2017-01-25T02:41:05.849Z,841.16
2017-01-25T02:41:35.876Z,841.18
2017-01-25T02:42:05.902Z,841.13
2017-01-25T02:42:35.938Z,841.16
2017-01-25T02:43:06.309Z,841.16
2017-01-25T02:43:35.984Z,841.11
2017-01-25T02:44:06.014Z,841.09
2017-01-25T02:44:36.038Z,841.01
2017-01-25T02:45:06.066Z,840.95
2017-01-25T02:45:36.091Z,840.79
2017-01-25T02:46:06.121Z,840.71
2017-01-25T02:46:36.149Z,840.63
2017-01-25T02:47:06.177Z,840.57
2017-01-25T02:47:36.204Z,840.44
2017-01-25T02:48:06.232Z,840.39
2017-01-25T02:48:36.258Z,840.29
2017-01-25T02:49:06.290Z,840.23
2017-01-25T02:49:36.312Z,840.18
2017-01-25T02:50:06.340Z,840.15
2017-01-25T02:50:36.368Z,840.14
2017-01-25T02:51:06.394Z,840.13
2017-01-25T02:51:36.423Z,840.12
2017-01-25T02:52:06.448Z,840.12
2017-01-25T02:52:36.477Z,840.11
2017-01-25T02:53:06.504Z,840.09
2017-01-25T02:53:36.527Z,840.12
2017-01-25T02:54:06.559Z,840.09
2017-01-25T02:54:36.586Z,840.12
2017-01-25T02:55:06.615Z,840.11
2017-01-25T02:55:36.640Z,840.19
2017-01-25T02:56:06.667Z,840.19
2017-01-25T02:56:36.696Z,840.16
2017-01-25T02:57:06.722Z,840.21
2017-01-25T02:57:36.750Z,840.15
2017-01-25T02:58:06.778Z,840.17
2017-01-25T02:58:36.803Z,840.22
2017-01-25T02:59:06.832Z,840.26
2017-01-25T02:59:36.859Z,840.35
2017-01-25T03:00:06.886Z,840.45
2017-01-25T03:00:36.914Z,840.51
2017-01-25T03:01:06.943Z,840.55
2017-01-25T03:01:36.968Z,840.63
2017-01-25T03:02:06.995Z,840.63
2017-01-25T03:02:37.022Z,840.74
2017-01-25T03:03:07.049Z,840.78
2017-01-25T03:03:37.377Z,840.84
2017-01-25T03:04:07.104Z,840.9
2017-01-25T03:04:37.135Z,840.93
2017-01-25T03:05:07.161Z,840.98
2017-01-25T03:05:37.184Z,841.04
2017-01-25T03:06:07.214Z,841.06
2017-01-25T03:06:37.240Z,841.1
2017-01-25T03:07:07.280Z,841.16
2017-01-25T03:07:37.295Z,841.21
2017-01-25T03:08:07.323Z,841.23
2017-01-25T03:08:37.348Z,841.27
2017-01-25T03:09:07.376Z,841.33
2017-01-25T03:09:37.407Z,841.39
2017-01-25T03:10:07.434Z,841.39
2017-01-25T03:10:37.460Z,841.41
2017-01-25T03:11:07.487Z,841.4
2017-01-25T03:11:37.514Z,841.39
2017-01-25T03:12:07.541Z,841.38
2017-01-25T03:12:37.569Z,841.36
2017-01-25T03:13:07.597Z,841.28
2017-01-25T03:13:37.633Z,841.31
2017-01-25T03:14:07.652Z,841.29
2017-01-25T03:14:37.679Z,841.28
2017-01-25T03:15:07.705Z,841.28
2017-01-25T03:15:37.732Z,841.24
2017-01-25T03:16:07.759Z,841.16
2017-01-25T03:16:37.788Z,841.13
2017-01-25T03:17:07.817Z,841.05
2017-01-25T03:17:37.842Z,840.97
2017-01-25T03:18:07.870Z,840.92
2017-01-25T03:18:37.900Z,840.84
2017-01-25T03:19:07.927Z,840.8
2017-01-25T03:19:37.949Z,840.77
2017-01-25T03:20:07.979Z,840.68
2017-01-25T03:20:38.009Z,840.69
2017-01-25T03:21:08.036Z,840.65
2017-01-25T03:21:38.062Z,840.66
2017-01-25T03:22:08.090Z,840.65
2017-01-25T03:22:38.117Z,840.64
2017-01-25T03:23:08.146Z,840.62
2017-01-25T03:23:38.170Z,840.59
2017-01-25T03:24:08.498Z,840.57
2017-01-25T03:24:38.227Z,840.54
2017-01-25T03:25:08.257Z,840.52
2017-01-25T03:25:38.280Z,840.55
2017-01-25T03:26:08.309Z,840.48
2017-01-25T03:26:38.336Z,840.5
2017-01-25T03:27:08.363Z,840.47
2017-01-25T03:27:38.388Z,840.46
2017-01-25T03:28:08.418Z,840.38
2017-01-25T03:28:38.448Z,840.4
2017-01-25T03:29:08.471Z,840.39
2017-01-25T03:29:38.498Z,840.36
2017-01-25T03:30:08.526Z,840.38
2017-01-25T03:30:38.554Z,840.36
2017-01-25T03:31:08.586Z,840.44
2017-01-25T03:31:38.617Z,840.48
2017-01-25T03:32:08.635Z,840.53
2017-01-25T03:32:38.665Z,840.52
2017-01-25T03:33:08.691Z,840.6
2017-01-25T03:33:38.718Z,840.66
2017-01-25T03:34:08.744Z,840.69
2017-01-25T03:34:38.774Z,840.74
2017-01-25T03:35:08.802Z,840.81
2017-01-25T03:35:38.824Z,840.84
2017-01-25T03:36:08.853Z,840.86
2017-01-25T03:36:38.884Z,840.99
2017-01-25T03:37:08.908Z,841.05
2017-01-25T03:37:38.938Z,841.18
2017-01-25T03:38:08.966Z,841.22
2017-01-25T03:38:38.990Z,841.25
2017-01-25T03:39:09.017Z,841.35
2017-01-25T03:39:39.044Z,841.42
2017-01-25T03:40:09.075Z,841.47
2017-01-25T03:40:39.101Z,841.46
2017-01-25T03:41:09.126Z,841.53
2017-01-25T03:41:39.155Z,841.59
2017-01-25T03:42:09.183Z,841.59
2017-01-25T03:42:39.211Z,841.6
2017-01-25T03:43:09.238Z,841.63
2017-01-25T03:43:39.266Z,841.62
2017-01-25T03:44:09.292Z,841.69
2017-01-25T03:44:39.671Z,841.67
2017-01-25T03:45:09.354Z,841.64
2017-01-25T03:45:39.376Z,841.61
2017-01-25T03:46:09.403Z,841.61
2017-01-25T03:46:39.457Z,841.64
2017-01-25T03:47:09.457Z,841.64
2017-01-25T03:47:39.486Z,841.61
2017-01-25T03:48:09.509Z,841.66
2017-01-25T03:48:39.540Z,841.72
2017-01-25T03:49:09.567Z,841.73
2017-01-25T03:49:39.601Z,841.74
2017-01-25T03:50:09.621Z,841.82
2017-01-25T03:50:39.648Z,841.84
2017-01-25T03:51:09.676Z,841.93
2017-01-25T03:51:39.705Z,841.93
2017-01-25T03:52:09.731Z,841.95
2017-01-25T03:52:39.760Z,841.98
2017-01-25T03:53:09.810Z,842
2017-01-25T03:53:39.815Z,842.01
2017-01-25T03:54:09.842Z,842
2017-01-25T03:54:39.867Z,841.99
2017-01-25T03:55:09.898Z,842.02
2017-01-25T03:55:39.923Z,842.09
2017-01-25T03:56:09.949Z,842.02
2017-01-25T03:56:39.979Z,842.02
2017-01-25T03:57:10.005Z,842.01
2017-01-25T03:57:40.032Z,842.04
2017-01-25T03:58:10.063Z,842.03
2017-01-25T03:58:40.087Z,842.03
2017-01-25T03:59:10.115Z,842.06
2017-01-25T03:59:40.141Z,842.07
2017-01-25T04:00:10.169Z,842.11
2017-01-25T04:00:40.196Z,842.12
2017-01-25T04:01:10.237Z,842.1
2017-01-25T04:01:40.254Z,842.15
2017-01-25T04:02:10.280Z,842.16
2017-01-25T04:02:40.307Z,842.16
2017-01-25T04:03:10.336Z,842.14
2017-01-25T04:03:40.366Z,842.1
2017-01-25T04:04:10.390Z,842.07
2017-01-25T04:04:40.415Z,842.08
2017-01-25T04:05:10.695Z,842.02
2017-01-25T04:05:40.473Z,842.01
2017-01-25T04:06:10.518Z,841.97
2017-01-25T04:06:40.526Z,841.91
2017-01-25T04:07:10.556Z,841.88
2017-01-25T04:07:40.584Z,841.87
2017-01-25T04:08:10.611Z,841.85
2017-01-25T04:08:40.640Z,841.79
2017-01-25T04:09:10.663Z,841.76
2017-01-25T04:09:40.693Z,841.65
2017-01-25T04:10:10.720Z,841.61
2017-01-25T04:10:40.747Z,841.62
2017-01-25T04:11:10.776Z,841.57
2017-01-25T04:11:40.807Z,841.54
2017-01-25T04:12:10.833Z,841.47
2017-01-25T04:12:40.855Z,841.43
2017-01-25T04:13:10.885Z,841.41
2017-01-25T04:13:40.913Z,841.32
2017-01-25T04:14:10.942Z,841.28
2017-01-25T04:14:40.966Z,841.21
2017-01-25T04:15:10.994Z,841.2
2017-01-25T04:15:41.023Z,841.21
2017-01-25T04:16:11.050Z,841.15
2017-01-25T04:16:41.078Z,841.19
2017-01-25T04:17:11.104Z,841.15
2017-01-25T04:17:41.133Z,841.14
2017-01-25T04:18:11.160Z,841.11
2017-01-25T04:18:41.186Z,841.02
2017-01-25T04:19:11.217Z,840.97
2017-01-25T04:19:41.241Z,840.99
2017-01-25T04:20:11.267Z,840.99
2017-01-25T04:20:41.299Z,841.04
2017-01-25T04:21:11.322Z,841.03
2017-01-25T04:21:41.352Z,841.1
2017-01-25T04:22:11.379Z,841.12
2017-01-25T04:22:41.406Z,841.22
2017-01-25T04:23:11.433Z,841.23
2017-01-25T04:23:41.460Z,841.21
2017-01-25T04:24:11.488Z,841.23
2017-01-25T04:24:41.515Z,841.27
2017-01-25T04:25:11.543Z,841.32
2017-01-25T04:25:41.820Z,841.34
2017-01-25T04:26:11.596Z,841.31
2017-01-25T04:26:41.625Z,841.26
2017-01-25T04:27:11.655Z,841.23
2017-01-25T04:27:41.681Z,841.19
2017-01-25T04:28:11.705Z,841.16
2017-01-25T04:28:41.734Z,841.18
2017-01-25T04:29:11.760Z,841.17
2017-01-25T04:29:41.787Z,841.15
2017-01-25T04:30:11.817Z,841.17
2017-01-25T04:30:41.846Z,841.2
2017-01-25T04:31:11.870Z,841.19
2017-01-25T04:31:41.899Z,841.23
2017-01-25T04:32:11.928Z,841.29
2017-01-25T04:32:41.953Z,841.34
2017-01-25T04:33:11.982Z,841.42
2017-01-25T04:33:42.009Z,841.44
2017-01-25T04:34:12.035Z,841.55
2017-01-25T04:34:42.064Z,841.57
2017-01-25T04:35:12.091Z,841.63
2017-01-25T04:35:42.117Z,841.69
2017-01-25T04:36:12.143Z,841.73
2017-01-25T04:36:42.169Z,841.77
2017-01-25T04:37:12.203Z,841.8
2017-01-25T04:37:42.228Z,841.8
2017-01-25T04:38:12.256Z,841.85
2017-01-25T04:38:42.280Z,841.88
2017-01-25T04:39:12.311Z,841.91
2017-01-25T04:39:42.339Z,841.95
2017-01-25T04:40:12.363Z,841.98
2017-01-25T04:40:42.388Z,842.02
2017-01-25T04:41:12.416Z,841.97
2017-01-25T04:41:42.444Z,841.96
2017-01-25T04:42:12.474Z,841.89
2017-01-25T04:42:42.499Z,841.85
2017-01-25T04:43:12.528Z,841.8
2017-01-25T04:43:42.554Z,841.7
2017-01-25T04:44:12.582Z,841.79
2017-01-25T04:44:42.609Z,841.79
2017-01-25T04:45:12.637Z,841.87
2017-01-25T04:45:42.665Z,841.96
2017-01-25T04:46:12.692Z,842.01
2017-01-25T04:46:42.718Z,842.07
2017-01-25T04:47:12.744Z,842.09
2017-01-25T04:47:42.774Z,842.15
2017-01-25T04:48:12.803Z,842.19
2017-01-25T04:48:42.832Z,842.27
2017-01-25T04:49:12.856Z,842.29
2017-01-25T04:49:42.885Z,842.33
2017-01-25T04:50:12.910Z,842.48
2017-01-25T04:50:42.936Z,842.54
2017-01-25T04:51:13.268Z,842.58
2017-01-25T04:51:42.993Z,842.66
2017-01-25T04:52:13.020Z,842.72
2017-01-25T04:52:43.049Z,842.8
2017-01-25T04:53:13.075Z,842.85
2017-01-25T04:53:43.103Z,842.87
2017-01-25T04:54:13.134Z,842.9
2017-01-25T04:54:43.158Z,842.97
2017-01-25T04:55:13.187Z,843.03
2017-01-25T04:55:43.216Z,843.09
2017-01-25T04:56:13.239Z,843.12
2017-01-25T04:56:43.269Z,843.14
2017-01-25T04:57:13.296Z,843.13
2017-01-25T04:57:43.326Z,843.21
2017-01-25T04:58:13.354Z,843.34
2017-01-25T04:58:43.378Z,843.43
2017-01-25T04:59:13.406Z,843.48
2017-01-25T04:59:43.435Z,843.56
2017-01-25T05:00:13.460Z,843.55
2017-01-25T05:00:43.487Z,843.68
2017-01-25T05:01:13.515Z,843.7
2017-01-25T05:01:43.557Z,843.78
2017-01-25T05:02:13.571Z,843.89
2017-01-25T05:02:43.600Z,843.89
2017-01-25T05:03:13.636Z,843.98
2017-01-25T05:03:43.654Z,844
2017-01-25T05:04:13.683Z,844.03
2017-01-25T05:04:43.712Z,844.02
2017-01-25T05:05:13.741Z,843.97
2017-01-25T05:05:43.792Z,843.99
2017-01-25T05:06:13.793Z,843.97
2017-01-25T05:06:43.822Z,843.91
2017-01-25T05:07:13.848Z,843.94
2017-01-25T05:07:43.875Z,843.9
2017-01-25T05:08:13.906Z,843.9
2017-01-25T05:08:43.937Z,843.8
2017-01-25T05:09:13.956Z,843.76
2017-01-25T05:09:43.985Z,843.71
2017-01-25T05:10:14.014Z,843.72
2017-01-25T05:10:44.043Z,843.77
2017-01-25T05:11:14.068Z,843.76
2017-01-25T05:11:44.348Z,843.72
2017-01-25T05:12:14.122Z,843.62
2017-01-25T05:12:44.152Z,843.66
2017-01-25T05:13:14.177Z,843.63
2017-01-25T05:13:44.203Z,843.57
2017-01-25T05:14:14.232Z,843.54
2017-01-25T05:14:44.268Z,843.47
2017-01-25T05:15:14.288Z,843.49
2017-01-25T05:15:44.315Z,843.43
2017-01-25T05:16:14.340Z,843.4
2017-01-25T05:16:44.370Z,843.37
2017-01-25T05:17:14.397Z,843.27
2017-01-25T05:17:44.427Z,843.21
2017-01-25T05:18:14.455Z,843.2
2017-01-25T05:18:44.480Z,843.17
2017-01-25T05:19:14.508Z,843.14
2017-01-25T05:19:44.538Z,843.16
2017-01-25T05:20:14.564Z,843.16
2017-01-25T05:20:44.591Z,843.18
2017-01-25T05:21:14.618Z,843.17
2017-01-25T05:21:44.647Z,843.15
2017-01-25T05:22:14.675Z,843.19
2017-01-25T05:22:44.702Z,843.19
2017-01-25T05:23:14.728Z,843.24
2017-01-25T05:23:44.756Z,843.27
2017-01-25T05:24:14.782Z,843.33
2017-01-25T05:24:44.811Z,843.37
2017-01-25T05:25:14.839Z,843.43
2017-01-25T05:25:44.865Z,843.46
2017-01-25T05:26:14.896Z,843.5
2017-01-25T05:26:44.923Z,843.58
2017-01-25T05:27:14.948Z,843.65
2017-01-25T05:27:44.976Z,843.68
2017-01-25T05:28:15.005Z,843.74
2017-01-25T05:28:45.031Z,843.75
2017-01-25T05:29:15.061Z,843.78
2017-01-25T05:29:45.087Z,843.82
2017-01-25T05:30:15.115Z,843.85
2017-01-25T05:30:45.142Z,843.9
2017-01-25T05:31:15.169Z,843.91
2017-01-25T05:31:45.198Z,843.93
2017-01-25T05:32:15.527Z,843.95
2017-01-25T05:32:45.254Z,843.97
2017-01-25T05:33:15.282Z,843.95
2017-01-25T05:33:45.307Z,843.93
2017-01-25T05:34:15.337Z,843.95
2017-01-25T05:34:45.362Z,843.91
2017-01-25T05:35:15.389Z,843.91
2017-01-25T05:35:45.420Z,843.9
2017-01-25T05:36:15.447Z,843.85
2017-01-25T05:36:45.472Z,843.9
2017-01-25T05:37:15.498Z,843.9
2017-01-25T05:37:45.527Z,843.95
2017-01-25T05:38:15.555Z,844.01
2017-01-25T05:38:45.583Z,844.04
2017-01-25T05:39:15.611Z,844.02
2017-01-25T05:39:45.640Z,844.08
2017-01-25T05:40:15.667Z,844.13
2017-01-25T05:40:45.694Z,844.14
2017-01-25T05:41:15.722Z,844.18
2017-01-25T05:41:45.750Z,844.18
2017-01-25T05:42:15.777Z,844.18
2017-01-25T05:42:45.805Z,844.25
2017-01-25T05:43:15.834Z,844.2
2017-01-25T05:43:45.861Z,844.17
2017-01-25T05:44:15.886Z,844.13
2017-01-25T05:44:45.916Z,844.13
2017-01-25T05:45:15.943Z,844.07
2017-01-25T05:45:45.972Z,843.96
2017-01-25T05:46:16.026Z,843.96
2017-01-25T05:46:46.023Z,843.94
2017-01-25T05:47:16.057Z,843.88
2017-01-25T05:47:46.082Z,843.82
2017-01-25T05:48:16.110Z,843.73
2017-01-25T05:48:46.136Z,843.72
2017-01-25T05:49:16.164Z,843.61
2017-01-25T05:49:46.192Z,843.57
2017-01-25T05:50:16.219Z,843.56
2017-01-25T05:50:46.244Z,843.51
2017-01-25T05:51:16.276Z,843.55
2017-01-25T05:51:46.301Z,843.56
2017-01-25T05:52:16.330Z,843.51
2017-01-25T05:52:46.657Z,843.52
2017-01-25T05:53:16.383Z,843.55
2017-01-25T05:53:46.411Z,843.61
2017-01-25T05:54:16.439Z,843.6
2017-01-25T05:54:46.465Z,843.67
2017-01-25T05:55:16.495Z,843.67
2017-01-25T05:55:46.521Z,843.69
2017-01-25T05:56:16.555Z,843.7
2017-01-25T05:56:46.577Z,843.73
2017-01-25T05:57:16.604Z,843.71
2017-01-25T05:57:46.635Z,843.7
2017-01-25T05:58:16.661Z,843.74
2017-01-25T05:58:46.685Z,843.79
2017-01-25T05:59:16.715Z,843.86
2017-01-25T05:59:46.744Z,843.91
2017-01-25T06:00:16.772Z,843.94
2017-01-25T06:00:46.801Z,843.94
2017-01-25T06:01:16.824Z,843.99
2017-01-25T06:01:46.854Z,844.03
2017-01-25T06:02:16.881Z,844.13
2017-01-25T06:02:46.909Z,844.14
2017-01-25T06:03:16.937Z,844.18
2017-01-25T06:03:46.961Z,844.26
2017-01-25T06:04:16.990Z,844.29
2017-01-25T06:04:47.022Z,844.4
2017-01-25T06:05:17.048Z,844.4
2017-01-25T06:05:47.073Z,844.44
2017-01-25T06:06:17.102Z,844.46
2017-01-25T06:06:47.127Z,844.57
2017-01-25T06:07:17.157Z,844.58
2017-01-25T06:07:47.182Z,844.63
2017-01-25T06:08:17.213Z,844.68
2017-01-25T06:08:47.239Z,844.76
2017-01-25T06:09:17.266Z,844.77
2017-01-25T06:09:47.293Z,844.83
2017-01-25T06:10:17.324Z,844.85
2017-01-25T06:10:47.350Z,844.92
2017-01-25T06:11:17.378Z,844.97
2017-01-25T06:11:47.408Z,845.02
2017-01-25T06:12:17.433Z,845.07
2017-01-25T06:12:47.463Z,845.12
2017-01-25T06:13:17.742Z,845.14
2017-01-25T06:13:47.520Z,845.17
2017-01-25T06:14:17.544Z,845.22
2017-01-25T06:14:47.574Z,845.25
2017-01-25T06:15:17.601Z,845.23
2017-01-25T06:15:47.632Z,845.26
2017-01-25T06:16:17.653Z,845.24